sensor_id;sensor_type;location;lat;lon;timestamp;P1;durP1;ratioP1;P2;durP2;ratioP2
2009;SDS011;1008;47.404;8.502;2023-03-31T00:00:24;8.83;;;4.40;;
2009;SDS011;1008;47.404;8.502;2023-03-31T00:02:51;8.90;;;5.10;;
2009;SDS011;1008;47.404;8.502;2023-03-31T00:05:20;6.00;;;4.33;;
2009;SDS011;1008;47.404;8.502;2023-03-31T00:07:51;7.70;;;5.50;;
2009;SDS011;1008;47.404;8.502;2023-03-31T00:10:19;7.63;;;5.30;;
2009;SDS011;1008;47.404;8.502;2023-03-31T00:12:47;9.77;;;5.30;;
2009;SDS011;1008;47.404;8.502;2023-03-31T00:15:14;7.30;;;4.63;;
2009;SDS011;1008;47.404;8.502;2023-03-31T00:17:41;8.67;;;5.40;;
2009;SDS011;1008;47.404;8.502;2023-03-31T00:20:08;7.20;;;5.07;;
2009;SDS011;1008;47.404;8.502;2023-03-31T00:22:36;8.30;;;4.73;;
2009;SDS011;1008;47.404;8.502;2023-03-31T00:25:06;10.47;;;5.27;;
2009;SDS011;1008;47.404;8.502;2023-03-31T00:27:34;8.43;;;5.67;;
2009;SDS011;1008;47.404;8.502;2023-03-31T00:30:03;10.00;;;5.10;;
2009;SDS011;1008;47.404;8.502;2023-03-31T00:32:31;7.77;;;5.30;;
2009;SDS011;1008;47.404;8.502;2023-03-31T00:34:58;10.10;;;5.00;;
2009;SDS011;1008;47.404;8.502;2023-03-31T00:37:26;7.17;;;4.80;;
2009;SDS011;1008;47.404;8.502;2023-03-31T00:39:53;7.00;;;4.90;;
2009;SDS011;1008;47.404;8.502;2023-03-31T00:42:20;8.77;;;5.63;;
2009;SDS011;1008;47.404;8.502;2023-03-31T00:47:51;7.97;;;4.87;;
2009;SDS011;1008;47.404;8.502;2023-03-31T00:50:21;8.63;;;5.30;;
2009;SDS011;1008;47.404;8.502;2023-03-31T00:52:52;7.50;;;5.30;;
2009;SDS011;1008;47.404;8.502;2023-03-31T00:55:23;11.73;;;4.97;;
2009;SDS011;1008;47.404;8.502;2023-03-31T00:57:54;8.43;;;4.77;;
2009;SDS011;1008;47.404;8.502;2023-03-31T01:00:23;6.90;;;4.50;;
2009;SDS011;1008;47.404;8.502;2023-03-31T01:02:51;10.60;;;4.77;;
2009;SDS011;1008;47.404;8.502;2023-03-31T01:05:24;9.07;;;4.30;;
2009;SDS011;1008;47.404;8.502;2023-03-31T01:07:53;7.80;;;5.00;;
2009;SDS011;1008;47.404;8.502;2023-03-31T01:10:21;5.60;;;3.67;;
2009;SDS011;1008;47.404;8.502;2023-03-31T01:12:49;6.17;;;4.17;;
2009;SDS011;1008;47.404;8.502;2023-03-31T01:15:18;6.70;;;4.90;;
2009;SDS011;1008;47.404;8.502;2023-03-31T01:17:46;8.73;;;4.60;;
2009;SDS011;1008;47.404;8.502;2023-03-31T01:20:16;6.90;;;4.33;;
2009;SDS011;1008;47.404;8.502;2023-03-31T01:26:19;6.60;;;4.60;;
2009;SDS011;1008;47.404;8.502;2023-03-31T01:29:07;9.67;;;4.60;;
2009;SDS011;1008;47.404;8.502;2023-03-31T01:31:55;7.17;;;4.77;;
2009;SDS011;1008;47.404;8.502;2023-03-31T01:41:06;9.30;;;4.53;;
2009;SDS011;1008;47.404;8.502;2023-03-31T01:43:46;6.73;;;4.70;;
2009;SDS011;1008;47.404;8.502;2023-03-31T01:46:20;5.50;;;4.10;;
2009;SDS011;1008;47.404;8.502;2023-03-31T01:48:53;8.80;;;4.57;;
2009;SDS011;1008;47.404;8.502;2023-03-31T01:51:29;6.30;;;5.00;;
2009;SDS011;1008;47.404;8.502;2023-03-31T01:54:01;5.70;;;3.73;;
2009;SDS011;1008;47.404;8.502;2023-03-31T01:56:38;7.97;;;4.63;;
2009;SDS011;1008;47.404;8.502;2023-03-31T01:59:08;4.70;;;4.00;;
2009;SDS011;1008;47.404;8.502;2023-03-31T02:01:39;8.60;;;4.97;;
2009;SDS011;1008;47.404;8.502;2023-03-31T02:04:11;6.17;;;4.40;;
2009;SDS011;1008;47.404;8.502;2023-03-31T02:06:41;6.50;;;4.63;;
2009;SDS011;1008;47.404;8.502;2023-03-31T02:09:15;7.70;;;4.60;;
2009;SDS011;1008;47.404;8.502;2023-03-31T02:11:47;7.20;;;4.40;;
2009;SDS011;1008;47.404;8.502;2023-03-31T02:14:17;8.63;;;4.50;;
2009;SDS011;1008;47.404;8.502;2023-03-31T02:16:47;6.70;;;4.53;;
2009;SDS011;1008;47.404;8.502;2023-03-31T02:19:22;5.53;;;4.40;;
2009;SDS011;1008;47.404;8.502;2023-03-31T02:21:51;8.30;;;4.73;;
2009;SDS011;1008;47.404;8.502;2023-03-31T02:24:20;8.83;;;5.00;;
2009;SDS011;1008;47.404;8.502;2023-03-31T02:26:52;9.90;;;5.27;;
2009;SDS011;1008;47.404;8.502;2023-03-31T02:29:23;10.87;;;5.20;;
2009;SDS011;1008;47.404;8.502;2023-03-31T02:31:52;7.20;;;4.37;;
2009;SDS011;1008;47.404;8.502;2023-03-31T02:34:25;8.30;;;4.67;;
2009;SDS011;1008;47.404;8.502;2023-03-31T02:36:52;7.87;;;5.03;;
2009;SDS011;1008;47.404;8.502;2023-03-31T02:39:19;8.47;;;4.90;;
2009;SDS011;1008;47.404;8.502;2023-03-31T02:41:49;6.90;;;5.23;;
2009;SDS011;1008;47.404;8.502;2023-03-31T02:44:18;7.27;;;5.17;;
2009;SDS011;1008;47.404;8.502;2023-03-31T02:46:45;9.73;;;5.10;;
2009;SDS011;1008;47.404;8.502;2023-03-31T02:49:14;9.10;;;5.13;;
2009;SDS011;1008;47.404;8.502;2023-03-31T02:54:45;7.70;;;4.70;;
2009;SDS011;1008;47.404;8.502;2023-03-31T02:57:41;7.00;;;4.57;;
2009;SDS011;1008;47.404;8.502;2023-03-31T03:00:32;6.10;;;4.63;;
2009;SDS011;1008;47.404;8.502;2023-03-31T03:03:13;5.87;;;4.30;;
2009;SDS011;1008;47.404;8.502;2023-03-31T03:05:52;6.63;;;4.87;;
2009;SDS011;1008;47.404;8.502;2023-03-31T03:08:31;7.57;;;5.10;;
2009;SDS011;1008;47.404;8.502;2023-03-31T03:11:13;8.93;;;5.10;;
2009;SDS011;1008;47.404;8.502;2023-03-31T03:13:48;9.43;;;5.00;;
2009;SDS011;1008;47.404;8.502;2023-03-31T03:16:17;8.80;;;4.70;;
2009;SDS011;1008;47.404;8.502;2023-03-31T03:18:55;8.43;;;4.70;;
2009;SDS011;1008;47.404;8.502;2023-03-31T03:21:23;7.13;;;4.20;;
2009;SDS011;1008;47.404;8.502;2023-03-31T03:23:50;7.27;;;4.47;;
2009;SDS011;1008;47.404;8.502;2023-03-31T03:26:17;6.10;;;3.90;;
2009;SDS011;1008;47.404;8.502;2023-03-31T03:28:49;6.13;;;3.90;;
2009;SDS011;1008;47.404;8.502;2023-03-31T03:31:16;8.60;;;4.30;;
2009;SDS011;1008;47.404;8.502;2023-03-31T03:33:42;4.83;;;3.90;;
2009;SDS011;1008;47.404;8.502;2023-03-31T03:36:10;5.63;;;4.20;;
2009;SDS011;1008;47.404;8.502;2023-03-31T03:38:37;9.83;;;4.20;;
2009;SDS011;1008;47.404;8.502;2023-03-31T03:41:04;9.03;;;4.60;;
2009;SDS011;1008;47.404;8.502;2023-03-31T03:43:31;10.10;;;5.20;;
2009;SDS011;1008;47.404;8.502;2023-03-31T03:46:00;8.23;;;5.17;;
2009;SDS011;1008;47.404;8.502;2023-03-31T03:48:26;8.60;;;4.27;;
2009;SDS011;1008;47.404;8.502;2023-03-31T03:50:53;7.77;;;4.10;;
2009;SDS011;1008;47.404;8.502;2023-03-31T03:53:21;7.67;;;4.70;;
2009;SDS011;1008;47.404;8.502;2023-03-31T03:55:48;6.00;;;4.60;;
2009;SDS011;1008;47.404;8.502;2023-03-31T03:58:15;10.03;;;4.37;;
2009;SDS011;1008;47.404;8.502;2023-03-31T04:00:43;5.80;;;4.13;;
2009;SDS011;1008;47.404;8.502;2023-03-31T04:03:12;7.27;;;3.70;;
2009;SDS011;1008;47.404;8.502;2023-03-31T04:05:40;8.17;;;4.80;;
2009;SDS011;1008;47.404;8.502;2023-03-31T04:08:07;6.43;;;4.20;;
2009;SDS011;1008;47.404;8.502;2023-03-31T04:10:34;7.63;;;4.43;;
2009;SDS011;1008;47.404;8.502;2023-03-31T04:13:01;6.07;;;4.60;;
2009;SDS011;1008;47.404;8.502;2023-03-31T04:15:27;6.60;;;4.60;;
2009;SDS011;1008;47.404;8.502;2023-03-31T04:17:54;8.00;;;4.00;;
2009;SDS011;1008;47.404;8.502;2023-03-31T04:20:23;5.90;;;3.90;;
2009;SDS011;1008;47.404;8.502;2023-03-31T04:22:51;5.70;;;3.80;;
2009;SDS011;1008;47.404;8.502;2023-03-31T04:25:18;7.67;;;4.10;;
2009;SDS011;1008;47.404;8.502;2023-03-31T04:27:47;4.97;;;3.90;;
2009;SDS011;1008;47.404;8.502;2023-03-31T04:30:18;5.30;;;3.97;;
2009;SDS011;1008;47.404;8.502;2023-03-31T04:32:48;5.50;;;3.90;;
2009;SDS011;1008;47.404;8.502;2023-03-31T04:35:17;6.37;;;4.40;;
2009;SDS011;1008;47.404;8.502;2023-03-31T04:37:46;7.60;;;4.47;;
2009;SDS011;1008;47.404;8.502;2023-03-31T04:40:13;6.80;;;4.13;;
2009;SDS011;1008;47.404;8.502;2023-03-31T04:42:40;7.23;;;4.30;;
2009;SDS011;1008;47.404;8.502;2023-03-31T04:45:08;6.20;;;4.43;;
2009;SDS011;1008;47.404;8.502;2023-03-31T04:47:35;5.87;;;4.13;;
2009;SDS011;1008;47.404;8.502;2023-03-31T04:50:02;10.90;;;4.53;;
2009;SDS011;1008;47.404;8.502;2023-03-31T04:52:30;5.13;;;3.30;;
2009;SDS011;1008;47.404;8.502;2023-03-31T04:54:58;9.10;;;3.67;;
2009;SDS011;1008;47.404;8.502;2023-03-31T04:57:25;5.97;;;3.77;;
2009;SDS011;1008;47.404;8.502;2023-03-31T04:59:51;6.67;;;3.90;;
2009;SDS011;1008;47.404;8.502;2023-03-31T05:02:18;4.93;;;3.83;;
2009;SDS011;1008;47.404;8.502;2023-03-31T05:04:47;5.27;;;3.67;;
2009;SDS011;1008;47.404;8.502;2023-03-31T05:07:14;4.10;;;3.67;;
2009;SDS011;1008;47.404;8.502;2023-03-31T05:09:41;4.43;;;3.23;;
2009;SDS011;1008;47.404;8.502;2023-03-31T05:12:10;7.50;;;4.10;;
2009;SDS011;1008;47.404;8.502;2023-03-31T05:14:36;6.07;;;3.93;;
2009;SDS011;1008;47.404;8.502;2023-03-31T05:17:03;7.03;;;3.80;;
2009;SDS011;1008;47.404;8.502;2023-03-31T05:19:30;5.03;;;3.90;;
2009;SDS011;1008;47.404;8.502;2023-03-31T05:21:57;6.60;;;4.00;;
2009;SDS011;1008;47.404;8.502;2023-03-31T05:24:24;6.97;;;3.47;;
2009;SDS011;1008;47.404;8.502;2023-03-31T05:26:52;5.43;;;3.80;;
2009;SDS011;1008;47.404;8.502;2023-03-31T05:29:21;6.23;;;3.90;;
2009;SDS011;1008;47.404;8.502;2023-03-31T05:31:49;3.60;;;3.23;;
2009;SDS011;1008;47.404;8.502;2023-03-31T05:34:17;8.93;;;3.70;;
2009;SDS011;1008;47.404;8.502;2023-03-31T05:36:45;7.47;;;3.87;;
2009;SDS011;1008;47.404;8.502;2023-03-31T05:39:14;5.23;;;3.87;;
2009;SDS011;1008;47.404;8.502;2023-03-31T05:41:41;6.17;;;3.60;;
2009;SDS011;1008;47.404;8.502;2023-03-31T05:44:08;7.40;;;4.10;;
2009;SDS011;1008;47.404;8.502;2023-03-31T05:46:36;4.73;;;3.80;;
2009;SDS011;1008;47.404;8.502;2023-03-31T05:49:02;4.87;;;3.70;;
2009;SDS011;1008;47.404;8.502;2023-03-31T05:51:30;7.43;;;4.00;;
2009;SDS011;1008;47.404;8.502;2023-03-31T05:53:57;9.10;;;4.00;;
2009;SDS011;1008;47.404;8.502;2023-03-31T05:56:23;5.40;;;3.80;;
2009;SDS011;1008;47.404;8.502;2023-03-31T05:58:51;7.10;;;4.30;;
2009;SDS011;1008;47.404;8.502;2023-03-31T06:01:18;6.97;;;4.03;;
2009;SDS011;1008;47.404;8.502;2023-03-31T06:03:48;5.80;;;3.53;;
2009;SDS011;1008;47.404;8.502;2023-03-31T06:06:15;6.00;;;3.97;;
2009;SDS011;1008;47.404;8.502;2023-03-31T06:08:42;5.43;;;3.90;;
2009;SDS011;1008;47.404;8.502;2023-03-31T06:11:11;8.70;;;4.13;;
2009;SDS011;1008;47.404;8.502;2023-03-31T06:13:39;4.13;;;3.73;;
2009;SDS011;1008;47.404;8.502;2023-03-31T06:16:07;8.50;;;4.40;;
2009;SDS011;1008;47.404;8.502;2023-03-31T06:18:36;6.67;;;4.10;;
2009;SDS011;1008;47.404;8.502;2023-03-31T06:21:05;7.97;;;4.43;;
2009;SDS011;1008;47.404;8.502;2023-03-31T06:23:32;7.77;;;3.90;;
2009;SDS011;1008;47.404;8.502;2023-03-31T06:26:04;5.50;;;3.50;;
2009;SDS011;1008;47.404;8.502;2023-03-31T06:28:33;6.00;;;3.97;;
2009;SDS011;1008;47.404;8.502;2023-03-31T06:31:01;10.00;;;4.50;;
2009;SDS011;1008;47.404;8.502;2023-03-31T06:33:28;5.20;;;3.47;;
2009;SDS011;1008;47.404;8.502;2023-03-31T06:35:55;8.63;;;3.90;;
2009;SDS011;1008;47.404;8.502;2023-03-31T06:38:24;5.80;;;3.53;;
2009;SDS011;1008;47.404;8.502;2023-03-31T06:40:51;9.37;;;3.80;;
2009;SDS011;1008;47.404;8.502;2023-03-31T06:43:18;6.53;;;3.50;;
2009;SDS011;1008;47.404;8.502;2023-03-31T06:45:45;12.10;;;3.43;;
2009;SDS011;1008;47.404;8.502;2023-03-31T06:48:12;7.90;;;3.67;;
2009;SDS011;1008;47.404;8.502;2023-03-31T06:50:39;5.40;;;3.40;;
2009;SDS011;1008;47.404;8.502;2023-03-31T06:53:06;4.90;;;3.10;;
2009;SDS011;1008;47.404;8.502;2023-03-31T06:55:35;5.93;;;3.17;;
2009;SDS011;1008;47.404;8.502;2023-03-31T06:58:02;5.00;;;3.07;;
2009;SDS011;1008;47.404;8.502;2023-03-31T07:00:29;6.03;;;2.90;;
2009;SDS011;1008;47.404;8.502;2023-03-31T07:02:56;6.50;;;3.17;;
2009;SDS011;1008;47.404;8.502;2023-03-31T07:05:22;6.80;;;3.37;;
2009;SDS011;1008;47.404;8.502;2023-03-31T07:07:51;3.80;;;2.97;;
2009;SDS011;1008;47.404;8.502;2023-03-31T07:10:18;6.03;;;2.63;;
2009;SDS011;1008;47.404;8.502;2023-03-31T07:12:46;3.83;;;2.10;;
2009;SDS011;1008;47.404;8.502;2023-03-31T07:15:13;5.10;;;2.80;;
2009;SDS011;1008;47.404;8.502;2023-03-31T07:17:40;5.30;;;3.07;;
2009;SDS011;1008;47.404;8.502;2023-03-31T07:20:07;5.93;;;3.07;;
2009;SDS011;1008;47.404;8.502;2023-03-31T07:22:37;5.73;;;3.70;;
2009;SDS011;1008;47.404;8.502;2023-03-31T07:25:05;5.73;;;3.57;;
2009;SDS011;1008;47.404;8.502;2023-03-31T07:27:32;6.03;;;3.87;;
2009;SDS011;1008;47.404;8.502;2023-03-31T07:30:01;4.53;;;2.90;;
2009;SDS011;1008;47.404;8.502;2023-03-31T07:32:28;5.83;;;3.83;;
2009;SDS011;1008;47.404;8.502;2023-03-31T07:34:55;5.20;;;3.53;;
2009;SDS011;1008;47.404;8.502;2023-03-31T07:37:22;7.57;;;3.70;;
2009;SDS011;1008;47.404;8.502;2023-03-31T07:39:48;6.77;;;3.80;;
2009;SDS011;1008;47.404;8.502;2023-03-31T07:42:15;3.93;;;3.47;;
2009;SDS011;1008;47.404;8.502;2023-03-31T07:44:42;4.80;;;3.07;;
2009;SDS011;1008;47.404;8.502;2023-03-31T07:47:10;4.47;;;3.50;;
2009;SDS011;1008;47.404;8.502;2023-03-31T07:49:37;4.73;;;3.50;;
2009;SDS011;1008;47.404;8.502;2023-03-31T07:52:04;6.00;;;3.60;;
2009;SDS011;1008;47.404;8.502;2023-03-31T07:54:30;5.47;;;3.67;;
2009;SDS011;1008;47.404;8.502;2023-03-31T07:56:57;5.87;;;3.70;;
2009;SDS011;1008;47.404;8.502;2023-03-31T07:59:28;5.67;;;3.20;;
2009;SDS011;1008;47.404;8.502;2023-03-31T08:01:55;5.40;;;3.17;;
2009;SDS011;1008;47.404;8.502;2023-03-31T08:04:23;6.17;;;3.93;;
2009;SDS011;1008;47.404;8.502;2023-03-31T08:06:50;5.03;;;2.97;;
2009;SDS011;1008;47.404;8.502;2023-03-31T08:09:17;6.03;;;2.87;;
2009;SDS011;1008;47.404;8.502;2023-03-31T08:11:46;3.33;;;2.90;;
2009;SDS011;1008;47.404;8.502;2023-03-31T08:14:13;7.10;;;3.33;;
2009;SDS011;1008;47.404;8.502;2023-03-31T08:16:40;3.63;;;2.70;;
2009;SDS011;1008;47.404;8.502;2023-03-31T08:19:07;7.10;;;3.30;;
2009;SDS011;1008;47.404;8.502;2023-03-31T08:21:35;7.37;;;3.43;;
2009;SDS011;1008;47.404;8.502;2023-03-31T08:24:02;5.63;;;3.50;;
2009;SDS011;1008;47.404;8.502;2023-03-31T08:26:29;4.57;;;3.30;;
2009;SDS011;1008;47.404;8.502;2023-03-31T08:28:56;5.87;;;3.57;;
2009;SDS011;1008;47.404;8.502;2023-03-31T08:31:23;5.23;;;3.33;;
2009;SDS011;1008;47.404;8.502;2023-03-31T08:33:53;8.17;;;3.77;;
2009;SDS011;1008;47.404;8.502;2023-03-31T08:36:19;7.33;;;3.53;;
2009;SDS011;1008;47.404;8.502;2023-03-31T08:38:48;9.73;;;3.67;;
2009;SDS011;1008;47.404;8.502;2023-03-31T08:41:20;6.10;;;3.63;;
2009;SDS011;1008;47.404;8.502;2023-03-31T08:43:55;5.40;;;3.53;;
2009;SDS011;1008;47.404;8.502;2023-03-31T08:46:24;5.43;;;3.37;;
2009;SDS011;1008;47.404;8.502;2023-03-31T08:48:56;5.57;;;3.30;;
2009;SDS011;1008;47.404;8.502;2023-03-31T08:51:25;7.07;;;3.37;;
2009;SDS011;1008;47.404;8.502;2023-03-31T08:53:56;5.27;;;3.43;;
2009;SDS011;1008;47.404;8.502;2023-03-31T08:56:27;5.37;;;3.13;;
2009;SDS011;1008;47.404;8.502;2023-03-31T08:58:56;5.30;;;3.10;;
2009;SDS011;1008;47.404;8.502;2023-03-31T09:01:28;5.60;;;3.40;;
2009;SDS011;1008;47.404;8.502;2023-03-31T09:04:10;8.50;;;3.17;;
2009;SDS011;1008;47.404;8.502;2023-03-31T09:06:49;5.80;;;3.27;;
2009;SDS011;1008;47.404;8.502;2023-03-31T09:09:24;4.27;;;3.40;;
2009;SDS011;1008;47.404;8.502;2023-03-31T09:11:59;4.30;;;3.17;;
2009;SDS011;1008;47.404;8.502;2023-03-31T09:14:32;6.43;;;3.30;;
2009;SDS011;1008;47.404;8.502;2023-03-31T09:17:06;6.60;;;3.03;;
2009;SDS011;1008;47.404;8.502;2023-03-31T09:19:42;4.73;;;3.30;;
2009;SDS011;1008;47.404;8.502;2023-03-31T09:22:15;6.20;;;2.90;;
2009;SDS011;1008;47.404;8.502;2023-03-31T09:24:48;4.70;;;2.67;;
2009;SDS011;1008;47.404;8.502;2023-03-31T09:27:20;4.97;;;2.50;;
2009;SDS011;1008;47.404;8.502;2023-03-31T09:29:52;5.17;;;2.77;;
2009;SDS011;1008;47.404;8.502;2023-03-31T09:32:23;6.30;;;2.20;;
2009;SDS011;1008;47.404;8.502;2023-03-31T09:34:54;4.03;;;2.60;;
2009;SDS011;1008;47.404;8.502;2023-03-31T09:37:26;4.87;;;2.83;;
2009;SDS011;1008;47.404;8.502;2023-03-31T09:39:57;4.10;;;2.57;;
2009;SDS011;1008;47.404;8.502;2023-03-31T09:42:26;4.00;;;2.80;;
2009;SDS011;1008;47.404;8.502;2023-03-31T09:44:52;4.83;;;2.53;;
2009;SDS011;1008;47.404;8.502;2023-03-31T09:47:20;4.93;;;2.40;;
2009;SDS011;1008;47.404;8.502;2023-03-31T09:49:55;3.20;;;2.60;;
2009;SDS011;1008;47.404;8.502;2023-03-31T09:52:25;4.20;;;2.37;;
2009;SDS011;1008;47.404;8.502;2023-03-31T09:54:55;6.37;;;2.77;;
2009;SDS011;1008;47.404;8.502;2023-03-31T09:57:26;4.83;;;2.70;;
2009;SDS011;1008;47.404;8.502;2023-03-31T10:00:00;4.43;;;2.33;;
2009;SDS011;1008;47.404;8.502;2023-03-31T10:02:35;7.80;;;2.10;;
2009;SDS011;1008;47.404;8.502;2023-03-31T10:05:04;3.90;;;2.50;;
2009;SDS011;1008;47.404;8.502;2023-03-31T10:07:43;2.80;;;2.20;;
2009;SDS011;1008;47.404;8.502;2023-03-31T10:10:27;2.90;;;2.13;;
2009;SDS011;1008;47.404;8.502;2023-03-31T10:12:57;5.60;;;2.20;;
2009;SDS011;1008;47.404;8.502;2023-03-31T10:15:27;4.30;;;2.40;;
2009;SDS011;1008;47.404;8.502;2023-03-31T10:17:56;5.70;;;2.53;;
2009;SDS011;1008;47.404;8.502;2023-03-31T10:20:29;2.87;;;2.30;;
2009;SDS011;1008;47.404;8.502;2023-03-31T10:23:01;3.63;;;2.23;;
2009;SDS011;1008;47.404;8.502;2023-03-31T10:25:31;5.50;;;2.50;;
2009;SDS011;1008;47.404;8.502;2023-03-31T10:27:59;2.70;;;2.40;;
2009;SDS011;1008;47.404;8.502;2023-03-31T10:30:29;2.87;;;2.40;;
2009;SDS011;1008;47.404;8.502;2023-03-31T10:33:00;4.63;;;2.10;;
2009;SDS011;1008;47.404;8.502;2023-03-31T10:35:30;3.73;;;2.20;;
2009;SDS011;1008;47.404;8.502;2023-03-31T10:38:00;3.13;;;1.87;;
2009;SDS011;1008;47.404;8.502;2023-03-31T10:40:29;3.90;;;2.17;;
2009;SDS011;1008;47.404;8.502;2023-03-31T10:43:01;1.80;;;1.70;;
2009;SDS011;1008;47.404;8.502;2023-03-31T10:45:35;3.87;;;2.10;;
2009;SDS011;1008;47.404;8.502;2023-03-31T10:48:03;2.87;;;1.90;;
2009;SDS011;1008;47.404;8.502;2023-03-31T10:50:33;1.57;;;1.47;;
2009;SDS011;1008;47.404;8.502;2023-03-31T10:53:01;6.73;;;1.90;;
2009;SDS011;1008;47.404;8.502;2023-03-31T10:55:33;3.20;;;1.90;;
2009;SDS011;1008;47.404;8.502;2023-03-31T10:58:11;3.73;;;1.73;;
2009;SDS011;1008;47.404;8.502;2023-03-31T11:00:49;4.40;;;2.27;;
2009;SDS011;1008;47.404;8.502;2023-03-31T11:03:40;4.00;;;1.80;;
2009;SDS011;1008;47.404;8.502;2023-03-31T11:06:26;3.53;;;1.67;;
2009;SDS011;1008;47.404;8.502;2023-03-31T11:09:02;4.57;;;2.17;;
2009;SDS011;1008;47.404;8.502;2023-03-31T11:11:45;2.93;;;1.50;;
2009;SDS011;1008;47.404;8.502;2023-03-31T11:14:24;1.90;;;1.60;;
2009;SDS011;1008;47.404;8.502;2023-03-31T11:16:59;5.60;;;1.80;;
2009;SDS011;1008;47.404;8.502;2023-03-31T11:19:35;6.50;;;1.73;;
2009;SDS011;1008;47.404;8.502;2023-03-31T11:22:08;6.20;;;2.00;;
2009;SDS011;1008;47.404;8.502;2023-03-31T11:24:56;6.10;;;2.10;;
2009;SDS011;1008;47.404;8.502;2023-03-31T11:27:39;6.00;;;2.00;;
2009;SDS011;1008;47.404;8.502;2023-03-31T11:30:27;4.23;;;1.70;;
2009;SDS011;1008;47.404;8.502;2023-03-31T11:33:02;2.20;;;1.57;;
2009;SDS011;1008;47.404;8.502;2023-03-31T11:35:45;5.10;;;2.10;;
2009;SDS011;1008;47.404;8.502;2023-03-31T11:38:32;2.83;;;2.23;;
2009;SDS011;1008;47.404;8.502;2023-03-31T11:41:10;5.90;;;2.30;;
2009;SDS011;1008;47.404;8.502;2023-03-31T11:43:42;2.27;;;1.80;;
2009;SDS011;1008;47.404;8.502;2023-03-31T11:46:12;4.47;;;2.13;;
2009;SDS011;1008;47.404;8.502;2023-03-31T11:48:44;3.80;;;2.10;;
2009;SDS011;1008;47.404;8.502;2023-03-31T11:51:13;2.83;;;2.10;;
2009;SDS011;1008;47.404;8.502;2023-03-31T11:53:43;5.63;;;2.33;;
2009;SDS011;1008;47.404;8.502;2023-03-31T11:56:12;5.20;;;2.73;;
2009;SDS011;1008;47.404;8.502;2023-03-31T11:58:43;3.83;;;2.03;;
2009;SDS011;1008;47.404;8.502;2023-03-31T12:01:14;3.53;;;1.73;;
2009;SDS011;1008;47.404;8.502;2023-03-31T12:03:47;2.20;;;1.53;;
2009;SDS011;1008;47.404;8.502;2023-03-31T12:06:23;4.00;;;1.50;;
2009;SDS011;1008;47.404;8.502;2023-03-31T12:08:56;3.50;;;1.50;;
2009;SDS011;1008;47.404;8.502;2023-03-31T12:11:32;6.80;;;1.53;;
2009;SDS011;1008;47.404;8.502;2023-03-31T12:14:07;1.57;;;1.40;;
2009;SDS011;1008;47.404;8.502;2023-03-31T12:16:43;3.53;;;1.53;;
2009;SDS011;1008;47.404;8.502;2023-03-31T12:19:13;1.53;;;1.10;;
2009;SDS011;1008;47.404;8.502;2023-03-31T12:21:46;1.20;;;0.93;;
2009;SDS011;1008;47.404;8.502;2023-03-31T12:24:15;1.90;;;1.10;;
2009;SDS011;1008;47.404;8.502;2023-03-31T12:26:43;4.43;;;1.10;;
2009;SDS011;1008;47.404;8.502;2023-03-31T12:29:21;2.10;;;0.80;;
2009;SDS011;1008;47.404;8.502;2023-03-31T12:31:53;2.53;;;1.13;;
2009;SDS011;1008;47.404;8.502;2023-03-31T12:34:23;1.17;;;0.80;;
2009;SDS011;1008;47.404;8.502;2023-03-31T12:36:56;5.27;;;0.80;;
2009;SDS011;1008;47.404;8.502;2023-03-31T12:39:37;1.00;;;0.80;;
2009;SDS011;1008;47.404;8.502;2023-03-31T12:45:12;1.77;;;0.70;;
2009;SDS011;1008;47.404;8.502;2023-03-31T12:47:52;0.90;;;0.70;;
2009;SDS011;1008;47.404;8.502;2023-03-31T12:50:34;1.20;;;0.70;;
2009;SDS011;1008;47.404;8.502;2023-03-31T12:53:13;2.50;;;0.80;;
2009;SDS011;1008;47.404;8.502;2023-03-31T12:55:46;2.37;;;0.90;;
2009;SDS011;1008;47.404;8.502;2023-03-31T12:58:35;0.90;;;0.77;;
2009;SDS011;1008;47.404;8.502;2023-03-31T13:01:08;3.00;;;1.20;;
2009;SDS011;1008;47.404;8.502;2023-03-31T13:03:46;1.07;;;0.80;;
2009;SDS011;1008;47.404;8.502;2023-03-31T13:12:06;2.27;;;0.80;;
2009;SDS011;1008;47.404;8.502;2023-03-31T13:14:35;1.50;;;0.83;;
2009;SDS011;1008;47.404;8.502;2023-03-31T13:17:12;1.47;;;0.87;;
2009;SDS011;1008;47.404;8.502;2023-03-31T13:19:46;2.40;;;0.90;;
2009;SDS011;1008;47.404;8.502;2023-03-31T13:22:26;1.20;;;1.10;;
2009;SDS011;1008;47.404;8.502;2023-03-31T13:27:56;1.97;;;0.90;;
2009;SDS011;1008;47.404;8.502;2023-03-31T13:33:12;1.67;;;1.07;;
2009;SDS011;1008;47.404;8.502;2023-03-31T13:35:41;1.20;;;0.90;;
2009;SDS011;1008;47.404;8.502;2023-03-31T13:38:13;3.40;;;1.20;;
2009;SDS011;1008;47.404;8.502;2023-03-31T13:40:51;1.13;;;1.03;;
2009;SDS011;1008;47.404;8.502;2023-03-31T13:43:39;2.73;;;1.30;;
2009;SDS011;1008;47.404;8.502;2023-03-31T13:46:47;1.70;;;1.10;;
2009;SDS011;1008;47.404;8.502;2023-03-31T13:52:33;2.00;;;1.53;;
2009;SDS011;1008;47.404;8.502;2023-03-31T13:55:22;3.83;;;1.40;;
2009;SDS011;1008;47.404;8.502;2023-03-31T13:58:11;2.17;;;1.00;;
2009;SDS011;1008;47.404;8.502;2023-03-31T14:00:47;2.60;;;1.27;;
2009;SDS011;1008;47.404;8.502;2023-03-31T14:03:25;3.00;;;1.40;;
2009;SDS011;1008;47.404;8.502;2023-03-31T14:06:02;3.93;;;1.33;;
2009;SDS011;1008;47.404;8.502;2023-03-31T14:08:44;1.73;;;0.90;;
2009;SDS011;1008;47.404;8.502;2023-03-31T14:11:17;1.70;;;0.90;;
2009;SDS011;1008;47.404;8.502;2023-03-31T14:13:57;3.83;;;1.03;;
2009;SDS011;1008;47.404;8.502;2023-03-31T14:16:25;2.60;;;1.10;;
2009;SDS011;1008;47.404;8.502;2023-03-31T14:18:54;1.07;;;0.67;;
2009;SDS011;1008;47.404;8.502;2023-03-31T14:21:34;2.20;;;0.73;;
2009;SDS011;1008;47.404;8.502;2023-03-31T14:24:09;1.63;;;0.90;;
2009;SDS011;1008;47.404;8.502;2023-03-31T14:26:46;1.73;;;0.70;;
2009;SDS011;1008;47.404;8.502;2023-03-31T14:29:20;1.30;;;0.90;;
2009;SDS011;1008;47.404;8.502;2023-03-31T14:31:55;1.20;;;0.90;;
2009;SDS011;1008;47.404;8.502;2023-03-31T14:37:20;1.00;;;0.80;;
2009;SDS011;1008;47.404;8.502;2023-03-31T14:39:49;1.50;;;0.87;;
2009;SDS011;1008;47.404;8.502;2023-03-31T14:42:20;0.90;;;0.80;;
2009;SDS011;1008;47.404;8.502;2023-03-31T14:44:54;1.40;;;0.80;;
2009;SDS011;1008;47.404;8.502;2023-03-31T14:47:22;1.20;;;0.67;;
2009;SDS011;1008;47.404;8.502;2023-03-31T14:49:57;2.20;;;0.67;;
2009;SDS011;1008;47.404;8.502;2023-03-31T14:52:28;1.77;;;0.60;;
2009;SDS011;1008;47.404;8.502;2023-03-31T14:54:55;2.50;;;0.70;;
2009;SDS011;1008;47.404;8.502;2023-03-31T14:57:24;2.70;;;0.90;;
2009;SDS011;1008;47.404;8.502;2023-03-31T14:59:55;1.37;;;0.70;;
2009;SDS011;1008;47.404;8.502;2023-03-31T15:02:27;1.10;;;0.70;;
2009;SDS011;1008;47.404;8.502;2023-03-31T15:04:56;0.90;;;0.70;;
2009;SDS011;1008;47.404;8.502;2023-03-31T15:07:24;2.57;;;1.00;;
2009;SDS011;1008;47.404;8.502;2023-03-31T15:09:53;2.03;;;1.10;;
2009;SDS011;1008;47.404;8.502;2023-03-31T15:12:21;4.00;;;1.17;;
2009;SDS011;1008;47.404;8.502;2023-03-31T15:14:49;1.03;;;0.77;;
2009;SDS011;1008;47.404;8.502;2023-03-31T15:17:18;2.87;;;1.10;;
2009;SDS011;1008;47.404;8.502;2023-03-31T15:19:51;1.17;;;1.07;;
2009;SDS011;1008;47.404;8.502;2023-03-31T15:22:20;2.43;;;1.20;;
2009;SDS011;1008;47.404;8.502;2023-03-31T15:24:48;4.03;;;1.00;;
2009;SDS011;1008;47.404;8.502;2023-03-31T15:27:18;4.63;;;1.03;;
2009;SDS011;1008;47.404;8.502;2023-03-31T15:29:52;2.80;;;0.90;;
2009;SDS011;1008;47.404;8.502;2023-03-31T15:32:22;2.47;;;1.20;;
2009;SDS011;1008;47.404;8.502;2023-03-31T15:34:51;2.13;;;1.07;;
2009;SDS011;1008;47.404;8.502;2023-03-31T15:37:20;6.03;;;1.00;;
2009;SDS011;1008;47.404;8.502;2023-03-31T15:39:49;3.93;;;1.03;;
2009;SDS011;1008;47.404;8.502;2023-03-31T15:42:17;3.47;;;1.17;;
2009;SDS011;1008;47.404;8.502;2023-03-31T15:44:45;1.47;;;0.70;;
2009;SDS011;1008;47.404;8.502;2023-03-31T15:47:15;0.80;;;0.70;;
2009;SDS011;1008;47.404;8.502;2023-03-31T15:49:47;1.00;;;0.90;;
2009;SDS011;1008;47.404;8.502;2023-03-31T15:52:20;1.57;;;0.70;;
2009;SDS011;1008;47.404;8.502;2023-03-31T15:54:54;2.07;;;0.90;;
2009;SDS011;1008;47.404;8.502;2023-03-31T15:57:29;0.80;;;0.60;;
2009;SDS011;1008;47.404;8.502;2023-03-31T15:59:58;2.13;;;0.90;;
2009;SDS011;1008;47.404;8.502;2023-03-31T16:02:25;1.70;;;0.80;;
2009;SDS011;1008;47.404;8.502;2023-03-31T16:05:01;1.33;;;0.80;;
2009;SDS011;1008;47.404;8.502;2023-03-31T16:07:28;1.10;;;0.73;;
2009;SDS011;1008;47.404;8.502;2023-03-31T16:09:58;2.20;;;0.60;;
2009;SDS011;1008;47.404;8.502;2023-03-31T16:12:30;2.40;;;0.60;;
2009;SDS011;1008;47.404;8.502;2023-03-31T16:15:02;0.80;;;0.70;;